Time;durP1;ratioP1;P1;durP2;ratioP2;P2;SDS_P1;SDS_P2;PMS_P1;PMS_P2;Temp;Humidity;BMP_temperature;BMP_pressure;BME280_temperature;BME280_humidity;BME280_pressure;Samples;Min_cycle;Max_cycle;Signal;HPM_P1;HPM_P2
2023/01/10 00:01:45;;;;;;;3.40;2.37;;;;;;;;;;5040292;28;20231;-60
2023/01/10 00:04:11;;;;;;;2.90;2.33;;;;;;;;;;5055460;28;20617;-61
2023/01/10 00:06:38;;;;;;;3.03;2.00;;;;;;;;;;5033970;28;20232;-59
2023/01/10 00:09:04;;;;;;;2.97;2.43;;;;;;;;;;5038976;28;20232;-59
2023/01/10 00:14:16;;;;;;;2.43;2.10;;;;;;;;;;5032413;28;20235;-59
2023/01/10 00:16:42;;;;;;;4.27;2.37;;;;;;;;;;5041519;28;20231;-60
2023/01/10 00:19:09;;;;;;;3.30;2.30;;;;;;;;;;5052711;28;20323;-60
2023/01/10 00:21:36;;;;;;;2.30;2.00;;;;;;;;;;5038023;28;20247;-59
2023/01/10 00:24:15;;;;;;;3.00;2.57;;;;;;;;;;5050802;28;20312;-62
2023/01/10 00:26:49;;;;;;;3.80;2.30;;;;;;;;;;5042223;28;20302;-60
2023/01/10 00:29:16;;;;;;;2.73;2.13;;;;;;;;;;5050601;28;20315;-59
2023/01/10 00:31:43;;;;;;;3.93;2.17;;;;;;;;;;5053102;28;20223;-59
2023/01/10 00:34:10;;;;;;;3.17;2.33;;;;;;;;;;5054615;28;20258;-60
2023/01/10 00:36:37;;;;;;;4.33;2.07;;;;;;;;;;5075169;28;20581;-58
2023/01/10 00:39:11;;;;;;;2.10;2.00;;;;;;;;;;5054621;28;20255;-59
2023/01/10 00:44:23;;;;;;;2.87;2.63;;;;;;;;;;5043561;28;20714;-62
2023/01/10 00:46:49;;;;;;;2.93;2.63;;;;;;;;;;5050467;28;20224;-60
2023/01/10 00:49:16;;;;;;;2.80;2.50;;;;;;;;;;5044958;28;20251;-59
2023/01/10 00:51:43;;;;;;;3.23;2.40;;;;;;;;;;5040111;28;20315;-59
2023/01/10 00:54:10;;;;;;;2.87;2.20;;;;;;;;;;5049929;28;20301;-59
2023/01/10 00:56:37;;;;;;;2.67;2.27;;;;;;;;;;5041751;28;20257;-59
2023/01/10 00:59:03;;;;;;;3.57;2.27;;;;;;;;;;5037891;28;20235;-60
2023/01/10 01:01:32;;;;;;;2.10;1.90;;;;;;;;;;5043926;28;20322;-60
2023/01/10 01:03:58;;;;;;;4.63;2.07;;;;;;;;;;5039173;28;20244;-59
2023/01/10 01:06:25;;;;;;;3.80;2.20;;;;;;;;;;5049601;28;20589;-59
2023/01/10 01:08:51;;;;;;;2.23;2.03;;;;;;;;;;5055916;28;20322;-59
2023/01/10 01:11:17;;;;;;;2.27;2.07;;;;;;;;;;5059409;28;20242;-60
2023/01/10 01:13:44;;;;;;;4.83;2.07;;;;;;;;;;5039715;28;20235;-59
2023/01/10 01:16:10;;;;;;;3.00;2.47;;;;;;;;;;5041328;28;20233;-59
2023/01/10 01:18:38;;;;;;;3.63;2.40;;;;;;;;;;5042322;28;20228;-59
2023/01/10 01:21:05;;;;;;;3.13;1.97;;;;;;;;;;5041703;28;20231;-59
2023/01/10 01:23:33;;;;;;;2.33;2.13;;;;;;;;;;5049325;28;20239;-61
2023/01/10 01:26:02;;;;;;;1.87;1.77;;;;;;;;;;5050517;28;20322;-60
2023/01/10 01:28:28;;;;;;;2.23;2.00;;;;;;;;;;5045297;28;20312;-59
2023/01/10 01:30:55;;;;;;;2.10;1.87;;;;;;;;;;5031262;28;20228;-60
2023/01/10 01:33:21;;;;;;;2.27;2.07;;;;;;;;;;5059857;28;20240;-58
2023/01/10 01:35:49;;;;;;;2.60;2.37;;;;;;;;;;5057309;28;20262;-59
2023/01/10 01:38:16;;;;;;;3.07;2.20;;;;;;;;;;5040042;28;20240;-61
2023/01/10 01:40:42;;;;;;;4.50;2.60;;;;;;;;;;5035516;28;20236;-59
2023/01/10 01:43:19;;;;;;;2.97;2.00;;;;;;;;;;5034195;28;20236;-59
2023/01/10 01:45:46;;;;;;;2.57;2.10;;;;;;;;;;5046593;28;20358;-59
2023/01/10 01:48:17;;;;;;;2.97;2.20;;;;;;;;;;5045166;28;20315;-59
2023/01/10 01:50:47;;;;;;;2.67;2.27;;;;;;;;;;5043709;28;20239;-59
2023/01/10 01:53:17;;;;;;;7.00;2.53;;;;;;;;;;5040970;28;20789;-60
2023/01/10 01:55:47;;;;;;;3.13;2.43;;;;;;;;;;5043265;28;20320;-59
2023/01/10 01:58:17;;;;;;;3.10;2.10;;;;;;;;;;5036204;28;20260;-59
2023/01/10 02:00:43;;;;;;;3.00;2.20;;;;;;;;;;5043340;28;20331;-60
2023/01/10 02:03:10;;;;;;;4.37;2.43;;;;;;;;;;5034328;28;20228;-59
2023/01/10 02:05:39;;;;;;;2.67;2.47;;;;;;;;;;5037365;28;20303;-58
2023/01/10 02:08:05;;;;;;;3.83;2.30;;;;;;;;;;5043222;28;20788;-60
2023/01/10 02:10:36;;;;;;;3.50;3.20;;;;;;;;;;5036863;28;20233;-59
2023/01/10 02:13:04;;;;;;;3.80;2.73;;;;;;;;;;5031164;28;20236;-59
2023/01/10 02:15:31;;;;;;;3.00;2.70;;;;;;;;;;5037783;28;20331;-59
2023/01/10 02:17:58;;;;;;;3.23;2.73;;;;;;;;;;5031044;28;20293;-60
2023/01/10 02:20:25;;;;;;;4.10;3.33;;;;;;;;;;5051533;28;20232;-59
2023/01/10 02:23:10;;;;;;;3.17;2.50;;;;;;;;;;5047133;28;20240;-59
2023/01/10 02:25:49;;;;;;;4.03;3.13;;;;;;;;;;5038239;28;20234;-60
2023/01/10 02:28:34;;;;;;;4.03;2.50;;;;;;;;;;5048352;28;20314;-59
2023/01/10 02:31:15;;;;;;;4.77;2.80;;;;;;;;;;5035147;28;20228;-59
2023/01/10 02:33:45;;;;;;;3.30;2.53;;;;;;;;;;5046315;28;20241;-59
2023/01/10 02:36:19;;;;;;;4.10;2.40;;;;;;;;;;5070315;28;20317;-59
2023/01/10 02:38:51;;;;;;;3.00;2.73;;;;;;;;;;5038343;28;20315;-58
2023/01/10 02:41:22;;;;;;;2.83;2.30;;;;;;;;;;5042268;28;20315;-59
2023/01/10 02:43:51;;;;;;;1.90;1.80;;;;;;;;;;5036425;28;20246;-58
2023/01/10 02:46:23;;;;;;;4.00;1.90;;;;;;;;;;5040246;28;20236;-58
2023/01/10 02:48:53;;;;;;;2.87;2.30;;;;;;;;;;5030409;28;20240;-59
2023/01/10 02:51:21;;;;;;;4.90;2.47;;;;;;;;;;5028200;28;20251;-60
2023/01/10 02:53:50;;;;;;;4.70;2.73;;;;;;;;;;5032030;28;20323;-59
2023/01/10 02:56:26;;;;;;;5.80;2.50;;;;;;;;;;5038391;28;20264;-60
2023/01/10 02:59:06;;;;;;;3.80;3.33;;;;;;;;;;5043960;28;20251;-60
2023/01/10 03:01:38;;;;;;;3.77;2.67;;;;;;;;;;5056606;28;20231;-61
2023/01/10 03:04:11;;;;;;;5.47;2.40;;;;;;;;;;5053289;28;20232;-60
2023/01/10 03:06:43;;;;;;;5.23;2.80;;;;;;;;;;5033736;28;20717;-60
2023/01/10 03:09:14;;;;;;;6.80;3.20;;;;;;;;;;5031776;28;20233;-60
2023/01/10 03:11:43;;;;;;;6.13;3.20;;;;;;;;;;5031283;28;20224;-60
2023/01/10 03:14:12;;;;;;;4.73;2.73;;;;;;;;;;5035979;28;20235;-60
2023/01/10 03:16:40;;;;;;;2.90;2.53;;;;;;;;;;5040281;28;20228;-64
2023/01/10 03:19:10;;;;;;;2.40;2.20;;;;;;;;;;5049342;28;20235;-61
2023/01/10 03:21:38;;;;;;;4.17;3.30;;;;;;;;;;5048718;28;20224;-59
2023/01/10 03:24:07;;;;;;;5.63;3.50;;;;;;;;;;5053005;28;20333;-59
2023/01/10 03:26:43;;;;;;;5.23;2.93;;;;;;;;;;5072866;28;20235;-59
2023/01/10 03:29:11;;;;;;;6.97;3.03;;;;;;;;;;5065161;28;20231;-60
2023/01/10 03:31:40;;;;;;;2.73;2.53;;;;;;;;;;5053785;28;20242;-62
2023/01/10 03:34:06;;;;;;;3.73;2.63;;;;;;;;;;5038057;28;20228;-59
2023/01/10 03:36:38;;;;;;;5.30;3.30;;;;;;;;;;5038641;28;20319;-60
2023/01/10 03:39:08;;;;;;;3.57;2.70;;;;;;;;;;5042655;28;20263;-60
2023/01/10 03:41:37;;;;;;;4.70;2.80;;;;;;;;;;5044854;28;20223;-59
2023/01/10 03:46:54;;;;;;;4.07;2.67;;;;;;;;;;5037278;28;20323;-59
2023/01/10 03:49:22;;;;;;;3.80;2.70;;;;;;;;;;5038651;28;20232;-59
2023/01/10 03:51:51;;;;;;;5.50;3.27;;;;;;;;;;5046905;28;20235;-59
2023/01/10 03:54:17;;;;;;;6.10;3.73;;;;;;;;;;5046182;28;20300;-59
2023/01/10 03:56:45;;;;;;;4.57;3.43;;;;;;;;;;5047689;28;20311;-60
2023/01/10 03:59:11;;;;;;;5.23;3.50;;;;;;;;;;5042570;28;20313;-59
2023/01/10 04:01:38;;;;;;;5.80;3.27;;;;;;;;;;5037440;28;20318;-59
2023/01/10 04:04:04;;;;;;;5.07;3.10;;;;;;;;;;5043902;28;20241;-59
2023/01/10 04:06:33;;;;;;;5.07;3.33;;;;;;;;;;5043093;28;20236;-60
2023/01/10 04:09:01;;;;;;;3.93;3.43;;;;;;;;;;5036445;28;20322;-61
2023/01/10 04:11:27;;;;;;;4.30;3.83;;;;;;;;;;5060098;28;20227;-59
2023/01/10 04:13:54;;;;;;;8.40;4.30;;;;;;;;;;5042334;28;20358;-60
2023/01/10 04:16:20;;;;;;;5.87;3.87;;;;;;;;;;5034882;28;20232;-61
2023/01/10 04:18:47;;;;;;;6.00;3.20;;;;;;;;;;5044446;28;20235;-60
2023/01/10 04:21:13;;;;;;;4.63;4.00;;;;;;;;;;5035913;28;20672;-59
2023/01/10 04:23:39;;;;;;;7.13;4.37;;;;;;;;;;5059060;28;20234;-60
2023/01/10 04:26:07;;;;;;;7.83;3.90;;;;;;;;;;5063725;28;20223;-59
2023/01/10 04:28:34;;;;;;;7.90;4.93;;;;;;;;;;5054156;28;20236;-59
2023/01/10 04:31:00;;;;;;;10.40;4.93;;;;;;;;;;5046656;28;20237;-61
2023/01/10 04:33:27;;;;;;;10.13;4.03;;;;;;;;;;5046701;28;20231;-60
2023/01/10 04:35:54;;;;;;;7.03;3.77;;;;;;;;;;5052421;28;20226;-59
2023/01/10 04:38:20;;;;;;;4.30;3.90;;;;;;;;;;5044563;28;20232;-59
2023/01/10 04:40:52;;;;;;;5.07;3.93;;;;;;;;;;5048359;28;20239;-59
2023/01/10 04:43:19;;;;;;;7.73;4.50;;;;;;;;;;5037011;28;20289;-60
2023/01/10 04:45:49;;;;;;;7.40;4.20;;;;;;;;;;5043247;28;20247;-60
2023/01/10 04:48:16;;;;;;;8.23;4.63;;;;;;;;;;5042852;28;20285;-60
2023/01/10 04:50:42;;;;;;;6.70;4.50;;;;;;;;;;5044515;28;20235;-62
2023/01/10 04:53:09;;;;;;;9.80;4.50;;;;;;;;;;5057945;28;20680;-59
2023/01/10 04:55:41;;;;;;;6.87;4.23;;;;;;;;;;5044301;28;20319;-59
2023/01/10 04:58:07;;;;;;;10.60;4.33;;;;;;;;;;5046325;28;20274;-59
2023/01/10 05:00:35;;;;;;;5.13;4.03;;;;;;;;;;5040030;28;20243;-60
2023/01/10 05:03:01;;;;;;;7.83;5.20;;;;;;;;;;5038371;28;20237;-60
2023/01/10 05:05:29;;;;;;;7.40;4.53;;;;;;;;;;5032715;28;20238;-59
2023/01/10 05:07:55;;;;;;;6.53;4.33;;;;;;;;;;5040633;28;20246;-59
2023/01/10 05:10:22;;;;;;;7.87;4.93;;;;;;;;;;5043871;28;20256;-60
2023/01/10 05:12:48;;;;;;;7.97;5.20;;;;;;;;;;5036959;28;20300;-59
2023/01/10 05:15:15;;;;;;;5.80;4.37;;;;;;;;;;5042840;28;20236;-60
2023/01/10 05:17:42;;;;;;;7.10;5.17;;;;;;;;;;5066587;28;20235;-60
2023/01/10 05:20:09;;;;;;;11.80;4.47;;;;;;;;;;5046930;28;20229;-60
2023/01/10 05:22:36;;;;;;;8.13;5.40;;;;;;;;;;5039464;28;20240;-60
2023/01/10 05:25:02;;;;;;;7.87;4.60;;;;;;;;;;5037705;28;20242;-60
2023/01/10 05:27:29;;;;;;;8.53;4.47;;;;;;;;;;5045920;28;20310;-59
2023/01/10 05:29:55;;;;;;;9.83;5.77;;;;;;;;;;5044425;28;20240;-59
2023/01/10 05:32:21;;;;;;;10.77;4.97;;;;;;;;;;5040379;28;20240;-59
2023/01/10 05:34:49;;;;;;;6.90;4.30;;;;;;;;;;5045523;28;20234;-60
2023/01/10 05:37:16;;;;;;;8.93;6.20;;;;;;;;;;5045739;28;20250;-59
2023/01/10 05:39:42;;;;;;;11.10;5.07;;;;;;;;;;5038491;28;20262;-62
2023/01/10 05:42:08;;;;;;;9.30;5.77;;;;;;;;;;5043044;28;20243;-59
2023/01/10 05:44:35;;;;;;;7.07;5.13;;;;;;;;;;5048208;28;20296;-59
2023/01/10 05:47:01;;;;;;;10.77;4.67;;;;;;;;;;5051522;28;20315;-59
2023/01/10 05:49:28;;;;;;;10.80;5.33;;;;;;;;;;5054710;28;20324;-60
2023/01/10 05:51:55;;;;;;;10.60;5.47;;;;;;;;;;5036045;28;20778;-61
2023/01/10 05:54:22;;;;;;;8.87;5.07;;;;;;;;;;5042185;28;20323;-60
2023/01/10 05:56:48;;;;;;;8.00;5.63;;;;;;;;;;5035598;28;20319;-60
2023/01/10 05:59:15;;;;;;;11.53;5.50;;;;;;;;;;5039096;28;20738;-60
2023/01/10 06:01:41;;;;;;;11.40;5.63;;;;;;;;;;5036067;28;20236;-60
2023/01/10 06:04:08;;;;;;;10.07;5.30;;;;;;;;;;5033071;28;20238;-60
2023/01/10 06:06:34;;;;;;;8.57;5.90;;;;;;;;;;5036594;28;20639;-61
2023/01/10 06:09:02;;;;;;;10.07;5.37;;;;;;;;;;5041664;28;20802;-60
2023/01/10 06:11:29;;;;;;;7.07;4.97;;;;;;;;;;5029802;28;20228;-64
2023/01/10 06:13:55;;;;;;;15.40;6.13;;;;;;;;;;5057374;28;20227;-60
2023/01/10 06:16:24;;;;;;;7.17;5.13;;;;;;;;;;5048772;28;20224;-61
2023/01/10 06:18:51;;;;;;;11.37;5.23;;;;;;;;;;5049944;28;20703;-61
2023/01/10 06:21:17;;;;;;;9.23;5.10;;;;;;;;;;5030177;28;20247;-60
2023/01/10 06:23:43;;;;;;;15.50;5.00;;;;;;;;;;5047895;28;20242;-60
2023/01/10 06:26:12;;;;;;;11.27;5.93;;;;;;;;;;5046900;28;20247;-61
2023/01/10 06:28:39;;;;;;;11.27;5.33;;;;;;;;;;5036591;28;20943;-60
2023/01/10 06:31:06;;;;;;;7.20;4.43;;;;;;;;;;5051728;28;20251;-60
2023/01/10 06:33:32;;;;;;;10.80;5.90;;;;;;;;;;5034327;28;20239;-60
2023/01/10 06:36:00;;;;;;;10.83;5.70;;;;;;;;;;5054716;28;20325;-60
2023/01/10 06:38:26;;;;;;;11.60;5.63;;;;;;;;;;5046940;28;20232;-61
2023/01/10 06:40:53;;;;;;;10.30;6.20;;;;;;;;;;5035397;28;20335;-60
2023/01/10 06:43:21;;;;;;;7.67;5.17;;;;;;;;;;5040166;28;20331;-60
2023/01/10 06:45:50;;;;;;;7.73;5.53;;;;;;;;;;5040070;28;20225;-61
2023/01/10 06:48:17;;;;;;;8.47;5.33;;;;;;;;;;5038611;28;20306;-60
2023/01/10 06:50:43;;;;;;;10.90;6.40;;;;;;;;;;5041716;28;20303;-61
2023/01/10 06:53:10;;;;;;;11.63;7.07;;;;;;;;;;5038946;28;20274;-59
2023/01/10 06:55:38;;;;;;;14.00;7.07;;;;;;;;;;5033852;28;20251;-60
2023/01/10 06:58:04;;;;;;;15.33;5.80;;;;;;;;;;5039316;28;20302;-60
2023/01/10 07:00:32;;;;;;;9.53;5.10;;;;;;;;;;5032054;28;20315;-61
2023/01/10 07:02:59;;;;;;;12.10;5.07;;;;;;;;;;5049571;28;20243;-60
2023/01/10 07:05:25;;;;;;;16.87;6.17;;;;;;;;;;5059100;28;20227;-59
2023/01/10 07:07:52;;;;;;;8.27;4.83;;;;;;;;;;5042308;28;20259;-60
2023/01/10 07:10:18;;;;;;;14.20;5.63;;;;;;;;;;5030524;28;20238;-60
2023/01/10 07:12:45;;;;;;;9.33;5.10;;;;;;;;;;5055225;28;20270;-60
2023/01/10 07:15:11;;;;;;;11.00;5.80;;;;;;;;;;5033745;28;20231;-59
2023/01/10 07:17:39;;;;;;;12.03;5.57;;;;;;;;;;5040162;28;20233;-60
2023/01/10 07:20:06;;;;;;;8.47;5.93;;;;;;;;;;5035461;28;20916;-60
2023/01/10 07:22:36;;;;;;;10.83;6.47;;;;;;;;;;5040983;28;20289;-61
2023/01/10 07:25:02;;;;;;;12.27;6.07;;;;;;;;;;5059542;28;20239;-60
2023/01/10 07:27:30;;;;;;;14.17;7.50;;;;;;;;;;5051976;28;20747;-60
2023/01/10 07:29:56;;;;;;;9.00;5.93;;;;;;;;;;5056623;28;20227;-60
2023/01/10 07:32:22;;;;;;;10.03;6.20;;;;;;;;;;5048166;28;20255;-60
2023/01/10 07:34:50;;;;;;;9.60;7.30;;;;;;;;;;5046083;28;20649;-59
2023/01/10 07:37:17;;;;;;;11.03;6.33;;;;;;;;;;5053471;28;20227;-59
2023/01/10 07:39:43;;;;;;;8.17;6.23;;;;;;;;;;5044400;28;20353;-59
2023/01/10 07:42:09;;;;;;;8.40;6.27;;;;;;;;;;5037947;28;20232;-59
2023/01/10 07:44:36;;;;;;;13.17;6.43;;;;;;;;;;5039579;28;20255;-59
2023/01/10 07:47:02;;;;;;;12.27;6.83;;;;;;;;;;5050550;28;20317;-60
2023/01/10 07:49:29;;;;;;;13.27;6.70;;;;;;;;;;5046479;28;20235;-59
2023/01/10 07:51:57;;;;;;;6.30;5.47;;;;;;;;;;5053242;28;20226;-59
2023/01/10 07:54:23;;;;;;;7.97;6.17;;;;;;;;;;5043711;28;20314;-58
2023/01/10 07:56:50;;;;;;;9.40;7.00;;;;;;;;;;5047562;28;20242;-60
2023/01/10 07:59:16;;;;;;;11.43;6.50;;;;;;;;;;5052121;28;20616;-58
2023/01/10 08:01:42;;;;;;;10.17;6.80;;;;;;;;;;5058420;28;20345;-59
2023/01/10 08:04:09;;;;;;;12.07;6.10;;;;;;;;;;5064413;28;20256;-58
2023/01/10 08:06:35;;;;;;;14.47;6.93;;;;;;;;;;5051925;28;20259;-58
2023/01/10 08:09:04;;;;;;;12.30;7.17;;;;;;;;;;5067435;28;20235;-59
2023/01/10 08:11:31;;;;;;;10.73;6.23;;;;;;;;;;5049422;28;20235;-59
2023/01/10 08:13:57;;;;;;;12.73;7.17;;;;;;;;;;5045159;28;20240;-59
2023/01/10 08:16:24;;;;;;;7.47;6.67;;;;;;;;;;5040493;28;20227;-57
2023/01/10 08:18:50;;;;;;;11.07;6.80;;;;;;;;;;5037575;28;21105;-57
2023/01/10 08:21:16;;;;;;;11.70;7.13;;;;;;;;;;5049756;28;20312;-57
2023/01/10 08:23:43;;;;;;;12.43;7.53;;;;;;;;;;5037114;28;20627;-56
2023/01/10 08:26:17;;;;;;;7.50;5.73;;;;;;;;;;5042628;28;20224;-58
2023/01/10 08:28:43;;;;;;;13.57;6.77;;;;;;;;;;5030727;28;20239;-58
2023/01/10 08:31:10;;;;;;;14.73;7.70;;;;;;;;;;5043302;28;20315;-57
2023/01/10 08:33:37;;;;;;;10.30;7.30;;;;;;;;;;5031405;28;20240;-56
2023/01/10 08:36:04;;;;;;;13.67;6.57;;;;;;;;;;5053596;28;20625;-57
2023/01/10 08:38:31;;;;;;;9.00;6.30;;;;;;;;;;5056065;28;20236;-58
2023/01/10 08:40:57;;;;;;;10.37;6.83;;;;;;;;;;5037924;28;20245;-56
2023/01/10 08:43:25;;;;;;;10.83;7.10;;;;;;;;;;5039980;28;20236;-55
2023/01/10 08:45:52;;;;;;;10.50;5.90;;;;;;;;;;5041070;28;20930;-57
2023/01/10 08:48:18;;;;;;;11.00;6.87;;;;;;;;;;5034889;28;20229;-57
2023/01/10 08:50:45;;;;;;;9.17;6.33;;;;;;;;;;5048061;28;20626;-57
2023/01/10 08:53:12;;;;;;;12.60;8.63;;;;;;;;;;5031236;28;20809;-56
2023/01/10 08:55:39;;;;;;;16.57;7.40;;;;;;;;;;5031108;28;20236;-56
2023/01/10 08:58:05;;;;;;;12.33;6.33;;;;;;;;;;5046860;28;20592;-58
2023/01/10 09:00:33;;;;;;;12.00;6.70;;;;;;;;;;5054611;28;20224;-54
2023/01/10 09:02:59;;;;;;;9.80;6.33;;;;;;;;;;5051443;28;20235;-57
2023/01/10 09:05:26;;;;;;;9.20;6.40;;;;;;;;;;5044577;28;20236;-57
2023/01/10 09:07:52;;;;;;;11.53;6.87;;;;;;;;;;5045877;28;20238;-56
2023/01/10 09:10:20;;;;;;;9.23;7.00;;;;;;;;;;5036638;28;20262;-57
2023/01/10 09:12:55;;;;;;;8.10;5.77;;;;;;;;;;5051121;28;20816;-56
2023/01/10 09:15:21;;;;;;;9.40;7.03;;;;;;;;;;5047590;28;20231;-57
2023/01/10 09:17:52;;;;;;;10.70;6.53;;;;;;;;;;5054000;28;20240;-58
2023/01/10 09:20:19;;;;;;;8.93;6.30;;;;;;;;;;5059387;28;20756;-57
2023/01/10 09:22:45;;;;;;;7.43;6.73;;;;;;;;;;5064518;28;21017;-57
2023/01/10 09:25:12;;;;;;;9.83;5.40;;;;;;;;;;5064800;28;20264;-57
2023/01/10 09:27:38;;;;;;;10.23;6.27;;;;;;;;;;5066600;28;20268;-57
2023/01/10 09:30:05;;;;;;;8.33;5.60;;;;;;;;;;5065678;28;20275;-56
2023/01/10 09:32:31;;;;;;;8.47;6.60;;;;;;;;;;5055873;28;20534;-56
2023/01/10 09:34:59;;;;;;;11.93;6.33;;;;;;;;;;5066837;28;20264;-56
2023/01/10 09:37:25;;;;;;;8.23;5.60;;;;;;;;;;5044491;28;20297;-57
2023/01/10 09:39:52;;;;;;;9.60;6.40;;;;;;;;;;5038482;28;20737;-57
2023/01/10 09:42:25;;;;;;;9.60;6.73;;;;;;;;;;5045732;28;20232;-57
2023/01/10 09:44:56;;;;;;;8.40;6.67;;;;;;;;;;5049696;28;20235;-57
2023/01/10 09:47:24;;;;;;;9.30;6.43;;;;;;;;;;5047326;28;20234;-57
2023/01/10 09:49:58;;;;;;;12.00;6.93;;;;;;;;;;5038726;28;20234;-57
2023/01/10 09:52:27;;;;;;;11.63;8.50;;;;;;;;;;5041362;28;20237;-57
2023/01/10 09:54:55;;;;;;;12.83;5.97;;;;;;;;;;5040959;28;20234;-58
2023/01/10 09:57:22;;;;;;;11.83;6.17;;;;;;;;;;5039548;28;20252;-57
2023/01/10 09:59:50;;;;;;;8.67;6.50;;;;;;;;;;5045481;28;20232;-57
2023/01/10 10:02:29;;;;;;;11.23;6.23;;;;;;;;;;5039500;28;20267;-57
2023/01/10 10:05:02;;;;;;;10.00;5.40;;;;;;;;;;5035210;28;20231;-56
2023/01/10 10:07:30;;;;;;;9.47;5.73;;;;;;;;;;5040913;28;20650;-56
2023/01/10 10:09:56;;;;;;;8.47;5.97;;;;;;;;;;5044003;28;20326;-56
2023/01/10 10:12:26;;;;;;;9.47;5.90;;;;;;;;;;5039237;28;20316;-57
2023/01/10 10:15:05;;;;;;;9.50;6.27;;;;;;;;;;5045234;28;20255;-57
2023/01/10 10:17:36;;;;;;;8.80;5.90;;;;;;;;;;5042603;28;20299;-54
2023/01/10 10:20:12;;;;;;;11.47;5.70;;;;;;;;;;5045229;28;20311;-57
2023/01/10 10:22:45;;;;;;;8.20;6.23;;;;;;;;;;5036607;28;20339;-56
2023/01/10 10:25:18;;;;;;;11.33;6.10;;;;;;;;;;5040324;28;20260;-57
2023/01/10 10:27:50;;;;;;;10.30;5.80;;;;;;;;;;5035384;28;20234;-56
2023/01/10 10:30:21;;;;;;;7.20;5.80;;;;;;;;;;5053100;28;20306;-56
2023/01/10 10:32:53;;;;;;;8.57;4.93;;;;;;;;;;5053825;28;20251;-59
2023/01/10 10:35:23;;;;;;;12.57;5.47;;;;;;;;;;5059285;28;20303;-60
2023/01/10 10:37:52;;;;;;;6.87;4.83;;;;;;;;;;5048667;28;20748;-55
2023/01/10 10:40:20;;;;;;;13.23;5.13;;;;;;;;;;5037122;28;20227;-56
2023/01/10 10:42:48;;;;;;;9.67;4.23;;;;;;;;;;5041276;28;20236;-55
2023/01/10 10:45:17;;;;;;;12.23;4.83;;;;;;;;;;5036788;28;20476;-56
2023/01/10 10:47:48;;;;;;;14.33;5.70;;;;;;;;;;5038499;28;20318;-55
2023/01/10 10:50:18;;;;;;;8.20;4.50;;;;;;;;;;5041772;28;20227;-56
2023/01/10 10:52:45;;;;;;;10.93;5.40;;;;;;;;;;5040154;28;20232;-56
2023/01/10 10:55:15;;;;;;;11.30;5.10;;;;;;;;;;5048629;28;20235;-55
2023/01/10 10:57:42;;;;;;;11.37;4.50;;;;;;;;;;5042058;28;20240;-59
2023/01/10 11:00:14;;;;;;;9.00;5.00;;;;;;;;;;5040143;28;20328;-56
2023/01/10 11:02:43;;;;;;;5.97;4.30;;;;;;;;;;5038864;28;20239;-57
2023/01/10 11:05:15;;;;;;;10.23;4.13;;;;;;;;;;5040726;28;20717;-57
2023/01/10 11:07:42;;;;;;;7.17;4.10;;;;;;;;;;5031789;28;20729;-56
2023/01/10 11:10:18;;;;;;;5.17;3.50;;;;;;;;;;5036647;28;20238;-55
2023/01/10 11:12:49;;;;;;;9.90;4.20;;;;;;;;;;5037580;28;20267;-57
2023/01/10 11:15:34;;;;;;;7.77;5.73;;;;;;;;;;5038912;28;20235;-55
2023/01/10 11:18:04;;;;;;;10.47;4.70;;;;;;;;;;5038015;28;20251;-58
2023/01/10 11:20:31;;;;;;;9.30;4.83;;;;;;;;;;5042763;28;20261;-56
2023/01/10 11:22:58;;;;;;;9.87;4.20;;;;;;;;;;5049098;28;20679;-56
2023/01/10 11:25:24;;;;;;;10.60;4.30;;;;;;;;;;5047129;28;20413;-57
2023/01/10 11:27:54;;;;;;;9.83;4.50;;;;;;;;;;5048388;28;20246;-57
2023/01/10 11:30:22;;;;;;;9.60;4.57;;;;;;;;;;5042767;28;20316;-57
2023/01/10 11:32:51;;;;;;;7.13;3.70;;;;;;;;;;5033460;28;20240;-56
2023/01/10 11:35:20;;;;;;;14.23;4.80;;;;;;;;;;5039378;28;20779;-57
2023/01/10 11:37:58;;;;;;;6.07;3.87;;;;;;;;;;5032251;28;20232;-56
2023/01/10 11:40:27;;;;;;;9.27;4.60;;;;;;;;;;5039398;28;20382;-58
2023/01/10 11:42:55;;;;;;;6.13;4.63;;;;;;;;;;5029568;28;20817;-57
2023/01/10 11:45:23;;;;;;;21.57;7.03;;;;;;;;;;5043552;28;20240;-57
2023/01/10 11:47:52;;;;;;;18.00;4.30;;;;;;;;;;5040867;28;20235;-58
2023/01/10 11:50:19;;;;;;;9.80;4.23;;;;;;;;;;5030976;28;20317;-57
2023/01/10 11:52:46;;;;;;;8.23;4.33;;;;;;;;;;5041432;28;20254;-58
2023/01/10 11:55:18;;;;;;;5.13;4.03;;;;;;;;;;5042568;28;20251;-58
2023/01/10 11:57:44;;;;;;;7.00;3.63;;;;;;;;;;5031459;28;20964;-56
2023/01/10 12:00:13;;;;;;;11.87;4.30;;;;;;;;;;5051995;28;20323;-55
2023/01/10 12:02:40;;;;;;;6.20;3.20;;;;;;;;;;5041021;28;20242;-55
2023/01/10 12:05:09;;;;;;;13.80;4.33;;;;;;;;;;5046659;28;20318;-57
2023/01/10 12:07:50;;;;;;;9.40;4.20;;;;;;;;;;5055440;28;20373;-56
2023/01/10 12:10:19;;;;;;;12.87;4.13;;;;;;;;;;5036074;28;20238;-56
2023/01/10 12:12:52;;;;;;;6.13;3.07;;;;;;;;;;5039302;28;20238;-56
2023/01/10 12:15:25;;;;;;;7.87;3.27;;;;;;;;;;5041984;28;20243;-57
2023/01/10 12:17:51;;;;;;;13.63;4.13;;;;;;;;;;5037082;28;20323;-56
2023/01/10 12:20:18;;;;;;;12.37;3.20;;;;;;;;;;5026654;28;20332;-56
2023/01/10 12:22:46;;;;;;;8.77;3.63;;;;;;;;;;5048220;28;20662;-57
2023/01/10 12:25:17;;;;;;;7.87;3.77;;;;;;;;;;5057816;28;20252;-56
2023/01/10 12:27:47;;;;;;;7.07;3.43;;;;;;;;;;5055147;28;20227;-56
2023/01/10 12:30:16;;;;;;;12.83;3.70;;;;;;;;;;5037825;28;20705;-56
2023/01/10 12:32:46;;;;;;;8.87;3.27;;;;;;;;;;5049804;28;20240;-57
2023/01/10 12:35:15;;;;;;;8.80;3.90;;;;;;;;;;5045489;28;20323;-56
2023/01/10 12:37:45;;;;;;;9.63;3.63;;;;;;;;;;5040274;28;20277;-57
2023/01/10 12:40:13;;;;;;;10.83;2.97;;;;;;;;;;5039843;28;20235;-56
2023/01/10 12:45:30;;;;;;;14.10;3.43;;;;;;;;;;5031359;28;20309;-55
2023/01/10 12:48:01;;;;;;;8.63;4.03;;;;;;;;;;5044090;28;20892;-54
2023/01/10 12:50:31;;;;;;;10.80;2.77;;;;;;;;;;5048625;28;20317;-57
2023/01/10 12:52:59;;;;;;;10.17;3.13;;;;;;;;;;5038179;28;20231;-56
2023/01/10 12:55:27;;;;;;;5.57;2.30;;;;;;;;;;5054245;28;20238;-56
2023/01/10 12:57:55;;;;;;;9.20;3.40;;;;;;;;;;5032671;28;20781;-57
2023/01/10 13:00:24;;;;;;;8.43;3.03;;;;;;;;;;5040787;28;21679;-57
2023/01/10 13:02:52;;;;;;;4.30;2.20;;;;;;;;;;5044542;28;20263;-56
2023/01/10 13:05:21;;;;;;;9.00;4.20;;;;;;;;;;5036481;28;20297;-56
2023/01/10 13:07:48;;;;;;;5.43;3.23;;;;;;;;;;5042493;28;20235;-57
2023/01/10 13:10:17;;;;;;;7.33;2.90;;;;;;;;;;5044665;28;20289;-57
2023/01/10 13:12:45;;;;;;;6.47;2.60;;;;;;;;;;5049737;28;20232;-55
2023/01/10 13:15:15;;;;;;;5.50;2.57;;;;;;;;;;5044891;28;20233;-55
2023/01/10 13:17:44;;;;;;;8.23;3.10;;;;;;;;;;5037984;28;20251;-56
2023/01/10 13:20:27;;;;;;;6.50;2.97;;;;;;;;;;5039862;28;20987;-56
2023/01/10 13:22:55;;;;;;;8.60;3.60;;;;;;;;;;5033022;28;20338;-55
2023/01/10 13:25:23;;;;;;;5.23;3.03;;;;;;;;;;5035289;28;20240;-57
2023/01/10 13:27:55;;;;;;;8.60;3.27;;;;;;;;;;5032925;28;20289;-57
2023/01/10 13:30:30;;;;;;;5.63;3.23;;;;;;;;;;5034416;28;20236;-58
2023/01/10 13:33:00;;;;;;;5.73;2.73;;;;;;;;;;5032440;28;20232;-56
2023/01/10 13:35:36;;;;;;;8.83;2.57;;;;;;;;;;5054667;28;20579;-57
2023/01/10 13:38:03;;;;;;;6.10;3.33;;;;;;;;;;5056351;28;20223;-57
2023/01/10 13:40:30;;;;;;;8.40;3.40;;;;;;;;;;5044704;28;20259;-57
2023/01/10 13:43:17;;;;;;;10.67;3.70;;;;;;;;;;5047793;28;20656;-58
2023/01/10 13:45:44;;;;;;;10.73;3.67;;;;;;;;;;5051811;28;20270;-58
2023/01/10 13:48:28;;;;;;;10.50;3.87;;;;;;;;;;5048336;28;20300;-57
2023/01/10 13:51:05;;;;;;;7.97;3.20;;;;;;;;;;5042980;28;20242;-57
2023/01/10 13:53:43;;;;;;;11.73;4.13;;;;;;;;;;5049882;28;20235;-57
2023/01/10 13:56:24;;;;;;;9.97;3.07;;;;;;;;;;5044974;28;20232;-57
2023/01/10 14:04:21;;;;;;;8.30;3.80;;;;;;;;;;5035465;28;20290;-56
2023/01/10 14:06:53;;;;;;;11.03;3.60;;;;;;;;;;5034353;28;20322;-56
2023/01/10 14:09:38;;;;;;;6.20;2.37;;;;;;;;;;5041255;28;20752;-56
2023/01/10 14:12:06;;;;;;;6.57;3.53;;;;;;;;;;5026624;28;20237;-57
2023/01/10 14:14:36;;;;;;;12.13;3.80;;;;;;;;;;5050345;28;20314;-57
2023/01/10 14:17:12;;;;;;;6.07;3.37;;;;;;;;;;5048236;28;20227;-56
2023/01/10 14:19:39;;;;;;;8.67;3.57;;;;;;;;;;5039595;28;20737;-56
2023/01/10 14:22:07;;;;;;;14.17;3.33;;;;;;;;;;5051612;28;20244;-56
2023/01/10 14:24:37;;;;;;;13.13;3.50;;;;;;;;;;5041554;28;20238;-56
2023/01/10 14:27:04;;;;;;;7.87;3.00;;;;;;;;;;5036297;28;20255;-58
2023/01/10 14:29:32;;;;;;;7.40;4.20;;;;;;;;;;5035814;28;20320;-56
2023/01/10 14:32:00;;;;;;;5.53;3.13;;;;;;;;;;5036776;28;20231;-58
2023/01/10 14:34:28;;;;;;;8.83;4.40;;;;;;;;;;5041157;28;20239;-57
2023/01/10 14:36:57;;;;;;;11.10;4.33;;;;;;;;;;5059190;28;20223;-57
2023/01/10 14:39:26;;;;;;;8.87;4.77;;;;;;;;;;5040767;28;20286;-57
2023/01/10 14:41:54;;;;;;;5.27;3.43;;;;;;;;;;5035035;28;20243;-57
2023/01/10 14:44:22;;;;;;;9.13;3.97;;;;;;;;;;5054197;28;20315;-57
2023/01/10 14:46:50;;;;;;;5.67;3.50;;;;;;;;;;5037570;28;20332;-56
2023/01/10 14:49:21;;;;;;;9.50;3.83;;;;;;;;;;5038581;28;20609;-57
2023/01/10 14:51:49;;;;;;;8.07;3.97;;;;;;;;;;5050817;28;20720;-57
2023/01/10 14:54:16;;;;;;;10.87;4.00;;;;;;;;;;5037770;28;20235;-57
2023/01/10 14:56:47;;;;;;;6.53;3.80;;;;;;;;;;5037081;28;20315;-57
2023/01/10 14:59:17;;;;;;;8.60;4.03;;;;;;;;;;5048453;28;20724;-57
2023/01/10 15:01:44;;;;;;;7.27;3.83;;;;;;;;;;5034409;28;20736;-56
2023/01/10 15:04:13;;;;;;;10.50;3.80;;;;;;;;;;5048335;28;20742;-57